Terminal Aerodrome Forecast
Issued by NWS

Home | Current Version | Previous Version | Text Only | Print | Product List | Glossary On
Versions: 1 2 3 4 5 6 7 8 9 10 11 12 13 14 15 16 17 18 19 20 21 22 23
000
FTUS45 KREV 242320
TAFRNO
TAF
KRNO 242320Z 2500/2524 26015G25KT P6SM VCSH BKN090 OVC150
     FM250400 30014G26KT P6SM SCT090 BKN150
     FM251000 33007KT P6SM SCT180
     FM251800 36006KT P6SM SCT180=

USA.gov is the U.S. government's official web portal to all federal, state and local government web resources and services.